sensor_id;sensor_type;location;lat;lon;timestamp;temperature;humidity
13496;DHT22;6820;49.374;8.452;2022-09-09T00:03:27;18.42;99.99
13496;DHT22;6820;49.374;8.452;2022-09-09T00:07:47;18.47;99.99
13496;DHT22;6820;49.374;8.452;2022-09-09T00:11:54;18.49;99.99
13496;DHT22;6820;49.374;8.452;2022-09-09T00:16:21;18.56;99.99
13496;DHT22;6820;49.374;8.452;2022-09-09T00:20:34;18.59;99.99
13496;DHT22;6820;49.374;8.452;2022-09-09T00:24:45;18.59;99.99
13496;DHT22;6820;49.374;8.452;2022-09-09T00:29:03;18.60;99.99
13496;DHT22;6820;49.374;8.452;2022-09-09T00:33:10;18.66;99.99
13496;DHT22;6820;49.374;8.452;2022-09-09T00:37:16;18.68;99.99
13496;DHT22;6820;49.374;8.452;2022-09-09T00:45:42;18.65;99.99
13496;DHT22;6820;49.374;8.452;2022-09-09T00:54:09;18.68;99.99
13496;DHT22;6820;49.374;8.452;2022-09-09T00:58:19;18.66;99.99
13496;DHT22;6820;49.374;8.452;2022-09-09T01:02:26;18.65;99.99
13496;DHT22;6820;49.374;8.452;2022-09-09T01:06:33;18.60;99.99
13496;DHT22;6820;49.374;8.452;2022-09-09T01:10:51;18.56;99.99
13496;DHT22;6820;49.374;8.452;2022-09-09T01:15:02;18.49;99.99
13496;DHT22;6820;49.374;8.452;2022-09-09T01:19:18;18.46;99.99
13496;DHT22;6820;49.374;8.452;2022-09-09T01:28:00;18.44;99.99
13496;DHT22;6820;49.374;8.452;2022-09-09T01:36:43;18.49;99.99
13496;DHT22;6820;49.374;8.452;2022-09-09T01:40:49;18.51;99.99
13496;DHT22;6820;49.374;8.452;2022-09-09T01:44:56;18.47;99.99
13496;DHT22;6820;49.374;8.452;2022-09-09T01:48:58;18.50;99.99
13496;DHT22;6820;49.374;8.452;2022-09-09T01:53:02;18.51;99.99
13496;DHT22;6820;49.374;8.452;2022-09-09T01:57:23;18.53;99.99
13496;DHT22;6820;49.374;8.452;2022-09-09T02:01:29;18.53;99.99
13496;DHT22;6820;49.374;8.452;2022-09-09T02:05:40;18.47;99.99
13496;DHT22;6820;49.374;8.452;2022-09-09T02:09:57;18.46;99.99
13496;DHT22;6820;49.374;8.452;2022-09-09T02:14:12;18.41;99.99
13496;DHT22;6820;49.374;8.452;2022-09-09T02:18:30;18.36;99.99
13496;DHT22;6820;49.374;8.452;2022-09-09T02:22:39;18.35;99.99
13496;DHT22;6820;49.374;8.452;2022-09-09T02:26:48;18.34;99.99
13496;DHT22;6820;49.374;8.452;2022-09-09T02:30:53;18.29;99.99
13496;DHT22;6820;49.374;8.452;2022-09-09T02:35:03;18.28;99.99
13496;DHT22;6820;49.374;8.452;2022-09-09T02:39:11;18.29;99.99
13496;DHT22;6820;49.374;8.452;2022-09-09T02:43:15;18.25;99.99
13496;DHT22;6820;49.374;8.452;2022-09-09T02:51:52;18.13;99.99
13496;DHT22;6820;49.374;8.452;2022-09-09T02:56:04;18.11;99.99
13496;DHT22;6820;49.374;8.452;2022-09-09T03:00:13;18.11;99.99
13496;DHT22;6820;49.374;8.452;2022-09-09T03:04:16;18.09;99.99
13496;DHT22;6820;49.374;8.452;2022-09-09T03:08:18;18.02;99.99
13496;DHT22;6820;49.374;8.452;2022-09-09T03:12:21;17.94;99.99
13496;DHT22;6820;49.374;8.452;2022-09-09T03:16:23;17.87;99.99
13496;DHT22;6820;49.374;8.452;2022-09-09T03:20:27;17.83;99.99
13496;DHT22;6820;49.374;8.452;2022-09-09T03:24:30;17.79;99.99
13496;DHT22;6820;49.374;8.452;2022-09-09T03:28:32;17.80;99.99
13496;DHT22;6820;49.374;8.452;2022-09-09T03:32:36;17.79;99.99
13496;DHT22;6820;49.374;8.452;2022-09-09T03:36:38;17.77;99.99
13496;DHT22;6820;49.374;8.452;2022-09-09T03:40:47;17.79;99.99
13496;DHT22;6820;49.374;8.452;2022-09-09T03:44:50;17.79;99.99
13496;DHT22;6820;49.374;8.452;2022-09-09T03:48:55;17.79;99.99
13496;DHT22;6820;49.374;8.452;2022-09-09T03:52:56;17.77;99.99
13496;DHT22;6820;49.374;8.452;2022-09-09T03:56:59;17.76;99.99
13496;DHT22;6820;49.374;8.452;2022-09-09T04:01:01;17.74;99.99
13496;DHT22;6820;49.374;8.452;2022-09-09T04:05:06;17.74;99.99
13496;DHT22;6820;49.374;8.452;2022-09-09T04:09:08;17.74;99.99
13496;DHT22;6820;49.374;8.452;2022-09-09T04:13:10;17.73;99.99
13496;DHT22;6820;49.374;8.452;2022-09-09T04:17:13;17.68;99.99
13496;DHT22;6820;49.374;8.452;2022-09-09T04:21:15;17.70;99.99
13496;DHT22;6820;49.374;8.452;2022-09-09T04:25:18;17.70;99.99
13496;DHT22;6820;49.374;8.452;2022-09-09T04:29:20;17.70;99.99
13496;DHT22;6820;49.374;8.452;2022-09-09T04:33:23;17.70;99.99
13496;DHT22;6820;49.374;8.452;2022-09-09T04:37:27;17.68;99.99
13496;DHT22;6820;49.374;8.452;2022-09-09T04:41:29;17.66;99.99
13496;DHT22;6820;49.374;8.452;2022-09-09T04:45:33;17.65;99.99
13496;DHT22;6820;49.374;8.452;2022-09-09T04:49:35;17.65;99.99
13496;DHT22;6820;49.374;8.452;2022-09-09T04:53:37;17.63;99.99
13496;DHT22;6820;49.374;8.452;2022-09-09T04:57:39;17.62;99.99
13496;DHT22;6820;49.374;8.452;2022-09-09T05:01:45;17.62;99.99
13496;DHT22;6820;49.374;8.452;2022-09-09T05:05:46;17.63;99.99
13496;DHT22;6820;49.374;8.452;2022-09-09T05:09:48;17.66;99.99
13496;DHT22;6820;49.374;8.452;2022-09-09T05:13:51;17.63;99.99
13496;DHT22;6820;49.374;8.452;2022-09-09T05:17:56;17.62;99.99
13496;DHT22;6820;49.374;8.452;2022-09-09T05:21:59;17.65;99.99
13496;DHT22;6820;49.374;8.452;2022-09-09T05:26:14;17.66;99.99
13496;DHT22;6820;49.374;8.452;2022-09-09T05:30:20;17.70;99.99
13496;DHT22;6820;49.374;8.452;2022-09-09T05:34:24;17.74;99.99
13496;DHT22;6820;49.374;8.452;2022-09-09T05:38:27;17.80;99.99
13496;DHT22;6820;49.374;8.452;2022-09-09T05:42:30;17.80;99.99
13496;DHT22;6820;49.374;8.452;2022-09-09T05:46:34;17.77;99.99
13496;DHT22;6820;49.374;8.452;2022-09-09T05:50:35;17.77;99.99
13496;DHT22;6820;49.374;8.452;2022-09-09T05:54:37;17.80;99.99
13496;DHT22;6820;49.374;8.452;2022-09-09T05:58:39;17.81;99.99
13496;DHT22;6820;49.374;8.452;2022-09-09T06:02:44;17.84;99.99
13496;DHT22;6820;49.374;8.452;2022-09-09T06:06:54;17.89;99.99
13496;DHT22;6820;49.374;8.452;2022-09-09T06:11:04;17.96;99.99
13496;DHT22;6820;49.374;8.452;2022-09-09T06:15:07;18.05;99.99
13496;DHT22;6820;49.374;8.452;2022-09-09T06:19:10;18.11;99.99
13496;DHT22;6820;49.374;8.452;2022-09-09T06:23:13;18.20;99.99
13496;DHT22;6820;49.374;8.452;2022-09-09T06:27:15;18.25;99.99
13496;DHT22;6820;49.374;8.452;2022-09-09T06:31:17;18.23;99.99
13496;DHT22;6820;49.374;8.452;2022-09-09T06:35:31;18.26;99.99
13496;DHT22;6820;49.374;8.452;2022-09-09T06:39:33;18.34;99.99
13496;DHT22;6820;49.374;8.452;2022-09-09T06:43:35;18.47;99.99
13496;DHT22;6820;49.374;8.452;2022-09-09T06:47:36;18.59;99.99
13496;DHT22;6820;49.374;8.452;2022-09-09T06:51:38;18.68;99.99
13496;DHT22;6820;49.374;8.452;2022-09-09T06:55:46;18.65;99.99
13496;DHT22;6820;49.374;8.452;2022-09-09T06:59:48;18.62;99.99
13496;DHT22;6820;49.374;8.452;2022-09-09T07:03:50;18.68;99.99
13496;DHT22;6820;49.374;8.452;2022-09-09T07:07:54;18.71;99.99
13496;DHT22;6820;49.374;8.452;2022-09-09T07:11:56;18.83;99.99
13496;DHT22;6820;49.374;8.452;2022-09-09T07:16:11;19.06;99.99
13496;DHT22;6820;49.374;8.452;2022-09-09T07:23:50;19.42;99.99
13496;DHT22;6820;49.374;8.452;2022-09-09T07:27:53;19.55;99.99
13496;DHT22;6820;49.374;8.452;2022-09-09T07:31:54;19.58;99.99
13496;DHT22;6820;49.374;8.452;2022-09-09T07:36:12;19.62;99.99
13496;DHT22;6820;49.374;8.452;2022-09-09T07:40:18;19.67;99.99
13496;DHT22;6820;49.374;8.452;2022-09-09T07:44:22;19.64;99.99
13496;DHT22;6820;49.374;8.452;2022-09-09T07:48:53;19.75;99.99
13496;DHT22;6820;49.374;8.452;2022-09-09T07:53:01;19.79;99.99
13496;DHT22;6820;49.374;8.452;2022-09-09T07:57:03;19.87;99.99
13496;DHT22;6820;49.374;8.452;2022-09-09T08:01:12;20.04;99.99
13496;DHT22;6820;49.374;8.452;2022-09-09T08:05:14;20.13;99.99
13496;DHT22;6820;49.374;8.452;2022-09-09T08:09:16;20.22;99.99
13496;DHT22;6820;49.374;8.452;2022-09-09T08:13:20;20.25;99.99
13496;DHT22;6820;49.374;8.452;2022-09-09T08:17:22;20.20;99.99
13496;DHT22;6820;49.374;8.452;2022-09-09T08:21:25;20.22;99.99
13496;DHT22;6820;49.374;8.452;2022-09-09T08:25:32;20.20;99.99
13496;DHT22;6820;49.374;8.452;2022-09-09T08:29:35;20.26;99.99
13496;DHT22;6820;49.374;8.452;2022-09-09T08:33:39;20.31;99.99
13496;DHT22;6820;49.374;8.452;2022-09-09T08:37:43;20.41;99.99
13496;DHT22;6820;49.374;8.452;2022-09-09T08:46:11;20.53;99.99
13496;DHT22;6820;49.374;8.452;2022-09-09T08:54:32;20.71;99.99
13496;DHT22;6820;49.374;8.452;2022-09-09T08:58:53;20.90;99.99
13496;DHT22;6820;49.374;8.452;2022-09-09T09:07:59;21.01;99.99
13496;DHT22;6820;49.374;8.452;2022-09-09T09:12:32;21.03;99.99
13496;DHT22;6820;49.374;8.452;2022-09-09T09:21:03;21.55;99.99
13496;DHT22;6820;49.374;8.452;2022-09-09T09:25:22;21.70;99.99
13496;DHT22;6820;49.374;8.452;2022-09-09T09:29:29;22.06;99.99
13496;DHT22;6820;49.374;8.452;2022-09-09T09:33:33;22.45;99.99
13496;DHT22;6820;49.374;8.452;2022-09-09T09:37:47;22.44;99.99
13496;DHT22;6820;49.374;8.452;2022-09-09T09:42:10;22.30;99.99
13496;DHT22;6820;49.374;8.452;2022-09-09T09:46:22;21.93;99.99
13496;DHT22;6820;49.374;8.452;2022-09-09T09:50:31;21.67;99.99
13496;DHT22;6820;49.374;8.452;2022-09-09T09:54:37;21.30;99.99
13496;DHT22;6820;49.374;8.452;2022-09-09T10:02:49;21.42;99.99
13496;DHT22;6820;49.374;8.452;2022-09-09T10:06:57;21.63;99.99
13496;DHT22;6820;49.374;8.452;2022-09-09T10:15:16;21.68;99.99
13496;DHT22;6820;49.374;8.452;2022-09-09T10:19:32;21.68;99.99
13496;DHT22;6820;49.374;8.452;2022-09-09T10:32:53;21.90;99.99
13496;DHT22;6820;49.374;8.452;2022-09-09T10:37:01;21.91;99.99
13496;DHT22;6820;49.374;8.452;2022-09-09T10:46:10;21.85;99.99
13496;DHT22;6820;49.374;8.452;2022-09-09T10:50:23;21.90;99.99
13496;DHT22;6820;49.374;8.452;2022-09-09T10:55:10;22.08;99.99
13496;DHT22;6820;49.374;8.452;2022-09-09T10:59:17;22.51;99.99
13496;DHT22;6820;49.374;8.452;2022-09-09T11:03:25;22.82;99.99
13496;DHT22;6820;49.374;8.452;2022-09-09T11:07:35;23.11;99.99
13496;DHT22;6820;49.374;8.452;2022-09-09T11:11:43;23.03;99.99
13496;DHT22;6820;49.374;8.452;2022-09-09T11:15:50;22.76;99.99
13496;DHT22;6820;49.374;8.452;2022-09-09T11:19:56;22.81;99.99
13496;DHT22;6820;49.374;8.452;2022-09-09T11:24:02;22.66;99.99
13496;DHT22;6820;49.374;8.452;2022-09-09T11:37:02;23.23;99.99
13496;DHT22;6820;49.374;8.452;2022-09-09T11:41:32;23.47;99.99
13496;DHT22;6820;49.374;8.452;2022-09-09T11:45:37;23.56;99.99
13496;DHT22;6820;49.374;8.452;2022-09-09T11:49:42;23.74;99.99
13496;DHT22;6820;49.374;8.452;2022-09-09T11:57:59;23.82;99.99
13496;DHT22;6820;49.374;8.452;2022-09-09T12:02:10;23.71;99.99
13496;DHT22;6820;49.374;8.452;2022-09-09T12:06:20;23.45;99.99
13496;DHT22;6820;49.374;8.452;2022-09-09T12:10:30;23.32;99.99
13496;DHT22;6820;49.374;8.452;2022-09-09T12:14:35;23.81;99.99
13496;DHT22;6820;49.374;8.452;2022-09-09T12:18:39;24.33;99.99
13496;DHT22;6820;49.374;8.452;2022-09-09T12:26:55;24.71;99.99
13496;DHT22;6820;49.374;8.452;2022-09-09T12:31:10;24.80;99.99
13496;DHT22;6820;49.374;8.452;2022-09-09T12:35:21;24.80;99.99
13496;DHT22;6820;49.374;8.452;2022-09-09T12:39:29;24.66;99.99
13496;DHT22;6820;49.374;8.452;2022-09-09T12:43:43;24.19;99.99
13496;DHT22;6820;49.374;8.452;2022-09-09T12:51:52;23.94;99.99
13496;DHT22;6820;49.374;8.452;2022-09-09T12:55:56;24.06;99.99
13496;DHT22;6820;49.374;8.452;2022-09-09T13:00:04;24.37;99.99
13496;DHT22;6820;49.374;8.452;2022-09-09T13:04:26;24.29;99.99
13496;DHT22;6820;49.374;8.452;2022-09-09T13:08:27;24.33;99.99
13496;DHT22;6820;49.374;8.452;2022-09-09T13:12:29;24.29;99.99
13496;DHT22;6820;49.374;8.452;2022-09-09T13:16:32;24.14;99.99
13496;DHT22;6820;49.374;8.452;2022-09-09T13:20:46;23.78;99.99
13496;DHT22;6820;49.374;8.452;2022-09-09T13:24:58;23.42;99.99
13496;DHT22;6820;49.374;8.452;2022-09-09T13:29:14;23.22;99.99
13496;DHT22;6820;49.374;8.452;2022-09-09T13:33:20;23.64;99.99
13496;DHT22;6820;49.374;8.452;2022-09-09T13:41:36;23.06;99.99
13496;DHT22;6820;49.374;8.452;2022-09-09T13:45:51;23.11;99.99
13496;DHT22;6820;49.374;8.452;2022-09-09T13:49:55;23.19;99.99
13496;DHT22;6820;49.374;8.452;2022-09-09T13:53:56;24.02;99.99
13496;DHT22;6820;49.374;8.452;2022-09-09T13:57:59;24.60;99.99
13496;DHT22;6820;49.374;8.452;2022-09-09T14:02:02;24.92;99.99
13496;DHT22;6820;49.374;8.452;2022-09-09T14:06:04;24.98;98.58
13496;DHT22;6820;49.374;8.452;2022-09-09T14:10:06;24.80;99.87
13496;DHT22;6820;49.374;8.452;2022-09-09T14:14:08;24.59;99.99
13496;DHT22;6820;49.374;8.452;2022-09-09T14:18:11;24.14;99.99
13496;DHT22;6820;49.374;8.452;2022-09-09T14:22:14;24.12;99.99
13496;DHT22;6820;49.374;8.452;2022-09-09T14:26:15;24.18;99.99
13496;DHT22;6820;49.374;8.452;2022-09-09T14:30:17;24.11;99.91
13496;DHT22;6820;49.374;8.452;2022-09-09T14:34:18;23.86;99.99
13496;DHT22;6820;49.374;8.452;2022-09-09T14:38:20;23.49;99.99
13496;DHT22;6820;49.374;8.452;2022-09-09T14:42:22;23.23;99.99
13496;DHT22;6820;49.374;8.452;2022-09-09T14:46:23;23.01;99.99
13496;DHT22;6820;49.374;8.452;2022-09-09T14:50:25;22.78;99.99
13496;DHT22;6820;49.374;8.452;2022-09-09T14:54:26;22.57;99.99
13496;DHT22;6820;49.374;8.452;2022-09-09T14:58:32;22.29;99.99
13496;DHT22;6820;49.374;8.452;2022-09-09T15:02:34;21.98;99.99
13496;DHT22;6820;49.374;8.452;2022-09-09T15:06:35;21.64;99.99
13496;DHT22;6820;49.374;8.452;2022-09-09T15:10:41;20.98;99.99
13496;DHT22;6820;49.374;8.452;2022-09-09T15:14:43;19.86;99.99
13496;DHT22;6820;49.374;8.452;2022-09-09T15:18:45;19.09;99.99
13496;DHT22;6820;49.374;8.452;2022-09-09T15:22:47;18.82;99.99
13496;DHT22;6820;49.374;8.452;2022-09-09T15:26:49;18.69;99.99
13496;DHT22;6820;49.374;8.452;2022-09-09T15:30:51;18.69;99.99
13496;DHT22;6820;49.374;8.452;2022-09-09T15:34:54;18.83;99.99
13496;DHT22;6820;49.374;8.452;2022-09-09T15:38:55;19.17;99.99
13496;DHT22;6820;49.374;8.452;2022-09-09T15:42:57;19.55;99.99
13496;DHT22;6820;49.374;8.452;2022-09-09T15:47:00;19.95;99.99
13496;DHT22;6820;49.374;8.452;2022-09-09T15:51:04;20.69;99.99
13496;DHT22;6820;49.374;8.452;2022-09-09T15:55:26;21.01;99.99
13496;DHT22;6820;49.374;8.452;2022-09-09T15:59:28;21.34;99.99
13496;DHT22;6820;49.374;8.452;2022-09-09T16:03:36;21.42;99.99
13496;DHT22;6820;49.374;8.452;2022-09-09T16:07:45;21.11;99.99
13496;DHT22;6820;49.374;8.452;2022-09-09T16:11:47;20.83;99.99
13496;DHT22;6820;49.374;8.452;2022-09-09T16:15:55;20.63;99.99
13496;DHT22;6820;49.374;8.452;2022-09-09T16:19:56;20.51;99.99
13496;DHT22;6820;49.374;8.452;2022-09-09T16:23:59;20.46;99.99
13496;DHT22;6820;49.374;8.452;2022-09-09T16:28:03;20.34;99.99
13496;DHT22;6820;49.374;8.452;2022-09-09T16:32:05;20.25;99.99
13496;DHT22;6820;49.374;8.452;2022-09-09T16:36:10;20.15;99.99
13496;DHT22;6820;49.374;8.452;2022-09-09T16:40:13;20.07;99.99
13496;DHT22;6820;49.374;8.452;2022-09-09T16:44:17;20.02;99.99
13496;DHT22;6820;49.374;8.452;2022-09-09T16:48:20;19.97;99.99
13496;DHT22;6820;49.374;8.452;2022-09-09T16:52:21;19.92;99.99
13496;DHT22;6820;49.374;8.452;2022-09-09T16:56:24;19.89;99.99
13496;DHT22;6820;49.374;8.452;2022-09-09T17:00:27;19.94;99.99
13496;DHT22;6820;49.374;8.452;2022-09-09T17:04:29;19.98;99.99
13496;DHT22;6820;49.374;8.452;2022-09-09T17:08:32;20.00;99.99
13496;DHT22;6820;49.374;8.452;2022-09-09T17:12:34;19.97;99.99
13496;DHT22;6820;49.374;8.452;2022-09-09T17:16:42;19.89;99.99
13496;DHT22;6820;49.374;8.452;2022-09-09T17:20:44;19.79;99.99
13496;DHT22;6820;49.374;8.452;2022-09-09T17:24:47;19.71;99.99
13496;DHT22;6820;49.374;8.452;2022-09-09T17:28:49;19.65;99.99
13496;DHT22;6820;49.374;8.452;2022-09-09T17:32:50;19.64;99.99
13496;DHT22;6820;49.374;8.452;2022-09-09T17:36:52;19.53;99.99
13496;DHT22;6820;49.374;8.452;2022-09-09T17:41:13;19.49;99.99
13496;DHT22;6820;49.374;8.452;2022-09-09T17:45:16;19.40;99.99
13496;DHT22;6820;49.374;8.452;2022-09-09T17:49:18;19.31;99.99
13496;DHT22;6820;49.374;8.452;2022-09-09T17:53:20;19.28;99.99
13496;DHT22;6820;49.374;8.452;2022-09-09T17:57:21;19.24;99.99
13496;DHT22;6820;49.374;8.452;2022-09-09T18:01:24;19.24;99.99
13496;DHT22;6820;49.374;8.452;2022-09-09T18:05:28;19.21;99.99
13496;DHT22;6820;49.374;8.452;2022-09-09T18:09:30;19.12;99.99
13496;DHT22;6820;49.374;8.452;2022-09-09T18:13:33;18.99;99.99
13496;DHT22;6820;49.374;8.452;2022-09-09T18:17:34;19.01;99.99
13496;DHT22;6820;49.374;8.452;2022-09-09T18:21:37;18.97;99.99
13496;DHT22;6820;49.374;8.452;2022-09-09T18:25:39;18.76;99.99
13496;DHT22;6820;49.374;8.452;2022-09-09T18:29:41;18.56;99.99
13496;DHT22;6820;49.374;8.452;2022-09-09T18:33:45;18.32;99.99
13496;DHT22;6820;49.374;8.452;2022-09-09T18:37:49;18.13;99.99
13496;DHT22;6820;49.374;8.452;2022-09-09T18:41:53;18.02;99.99
13496;DHT22;6820;49.374;8.452;2022-09-09T18:46:03;17.94;99.99
13496;DHT22;6820;49.374;8.452;2022-09-09T18:50:05;17.84;99.99
13496;DHT22;6820;49.374;8.452;2022-09-09T18:54:09;17.89;99.99
13496;DHT22;6820;49.374;8.452;2022-09-09T18:58:14;17.99;99.99
13496;DHT22;6820;49.374;8.452;2022-09-09T19:02:15;18.04;99.99
13496;DHT22;6820;49.374;8.452;2022-09-09T19:06:18;18.09;99.99
13496;DHT22;6820;49.374;8.452;2022-09-09T19:10:25;18.13;99.99
13496;DHT22;6820;49.374;8.452;2022-09-09T19:14:27;18.16;99.99
13496;DHT22;6820;49.374;8.452;2022-09-09T19:18:29;18.17;99.99
13496;DHT22;6820;49.374;8.452;2022-09-09T19:22:31;18.19;99.99
13496;DHT22;6820;49.374;8.452;2022-09-09T19:26:34;18.16;99.99
13496;DHT22;6820;49.374;8.452;2022-09-09T19:30:41;18.16;99.99
13496;DHT22;6820;49.374;8.452;2022-09-09T19:34:47;18.17;99.99
13496;DHT22;6820;49.374;8.452;2022-09-09T19:38:51;18.16;99.99
13496;DHT22;6820;49.374;8.452;2022-09-09T19:42:54;18.16;99.99
13496;DHT22;6820;49.374;8.452;2022-09-09T19:46:55;18.10;99.99
13496;DHT22;6820;49.374;8.452;2022-09-09T19:51:01;18.09;99.99
13496;DHT22;6820;49.374;8.452;2022-09-09T19:55:07;18.09;99.99
13496;DHT22;6820;49.374;8.452;2022-09-09T19:59:09;18.11;99.99
13496;DHT22;6820;49.374;8.452;2022-09-09T20:03:12;18.07;99.99
13496;DHT22;6820;49.374;8.452;2022-09-09T20:07:19;17.98;99.99
13496;DHT22;6820;49.374;8.452;2022-09-09T20:11:21;17.99;99.99
13496;DHT22;6820;49.374;8.452;2022-09-09T20:15:23;17.95;99.99
13496;DHT22;6820;49.374;8.452;2022-09-09T20:19:25;17.94;99.99
13496;DHT22;6820;49.374;8.452;2022-09-09T20:23:27;17.95;99.99
13496;DHT22;6820;49.374;8.452;2022-09-09T20:27:29;17.98;99.99
13496;DHT22;6820;49.374;8.452;2022-09-09T20:31:32;17.99;99.99
13496;DHT22;6820;49.374;8.452;2022-09-09T20:35:36;17.98;99.99
13496;DHT22;6820;49.374;8.452;2022-09-09T20:39:38;17.96;99.99
13496;DHT22;6820;49.374;8.452;2022-09-09T20:43:47;17.95;99.99
13496;DHT22;6820;49.374;8.452;2022-09-09T20:47:49;17.96;99.99
13496;DHT22;6820;49.374;8.452;2022-09-09T20:51:51;17.96;99.99
13496;DHT22;6820;49.374;8.452;2022-09-09T20:55:57;17.96;99.99
13496;DHT22;6820;49.374;8.452;2022-09-09T21:00:00;17.98;99.99
13496;DHT22;6820;49.374;8.452;2022-09-09T21:04:02;18.01;99.99
13496;DHT22;6820;49.374;8.452;2022-09-09T21:08:03;18.05;99.99
13496;DHT22;6820;49.374;8.452;2022-09-09T21:12:05;18.09;99.99
13496;DHT22;6820;49.374;8.452;2022-09-09T21:16:08;18.02;99.99
13496;DHT22;6820;49.374;8.452;2022-09-09T21:20:13;18.01;99.99
13496;DHT22;6820;49.374;8.452;2022-09-09T21:24:15;18.02;99.99
13496;DHT22;6820;49.374;8.452;2022-09-09T21:28:16;18.04;99.99
13496;DHT22;6820;49.374;8.452;2022-09-09T21:32:18;18.05;99.99
13496;DHT22;6820;49.374;8.452;2022-09-09T21:36:21;18.05;99.99
13496;DHT22;6820;49.374;8.452;2022-09-09T21:40:23;18.04;99.99
13496;DHT22;6820;49.374;8.452;2022-09-09T21:44:26;18.01;99.99
13496;DHT22;6820;49.374;8.452;2022-09-09T21:48:28;18.01;99.99
13496;DHT22;6820;49.374;8.452;2022-09-09T21:52:29;17.96;99.99
13496;DHT22;6820;49.374;8.452;2022-09-09T21:56:31;17.95;99.99
13496;DHT22;6820;49.374;8.452;2022-09-09T22:00:33;17.91;99.99
13496;DHT22;6820;49.374;8.452;2022-09-09T22:04:35;17.87;99.99
13496;DHT22;6820;49.374;8.452;2022-09-09T22:08:37;17.84;99.99
13496;DHT22;6820;49.374;8.452;2022-09-09T22:12:39;17.79;99.99
13496;DHT22;6820;49.374;8.452;2022-09-09T22:16:40;17.74;99.99
13496;DHT22;6820;49.374;8.452;2022-09-09T22:20:42;17.73;99.99
13496;DHT22;6820;49.374;8.452;2022-09-09T22:24:45;17.68;99.99
13496;DHT22;6820;49.374;8.452;2022-09-09T22:28:46;17.71;99.99
13496;DHT22;6820;49.374;8.452;2022-09-09T22:32:48;17.74;99.99
13496;DHT22;6820;49.374;8.452;2022-09-09T22:36:51;17.70;99.99
13496;DHT22;6820;49.374;8.452;2022-09-09T22:40:52;17.73;99.99
13496;DHT22;6820;49.374;8.452;2022-09-09T22:44:54;17.71;99.99
13496;DHT22;6820;49.374;8.452;2022-09-09T22:48:56;17.68;99.99
13496;DHT22;6820;49.374;8.452;2022-09-09T22:52:58;17.63;99.99
13496;DHT22;6820;49.374;8.452;2022-09-09T22:57:00;17.57;99.99
13496;DHT22;6820;49.374;8.452;2022-09-09T23:01:06;17.51;99.99
13496;DHT22;6820;49.374;8.452;2022-09-09T23:05:14;17.51;99.99
13496;DHT22;6820;49.374;8.452;2022-09-09T23:09:16;17.46;99.99
13496;DHT22;6820;49.374;8.452;2022-09-09T23:13:18;17.39;99.99
13496;DHT22;6820;49.374;8.452;2022-09-09T23:17:19;17.38;99.99
13496;DHT22;6820;49.374;8.452;2022-09-09T23:21:22;17.36;99.99
13496;DHT22;6820;49.374;8.452;2022-09-09T23:25:26;17.36;99.99
13496;DHT22;6820;49.374;8.452;2022-09-09T23:29:28;17.33;99.99
13496;DHT22;6820;49.374;8.452;2022-09-09T23:33:29;17.27;99.99
13496;DHT22;6820;49.374;8.452;2022-09-09T23:37:32;17.30;99.99
13496;DHT22;6820;49.374;8.452;2022-09-09T23:41:35;17.27;99.99
13496;DHT22;6820;49.374;8.452;2022-09-09T23:45:37;17.25;99.99
13496;DHT22;6820;49.374;8.452;2022-09-09T23:49:39;17.18;99.99
13496;DHT22;6820;49.374;8.452;2022-09-09T23:53:40;17.14;99.99
13496;DHT22;6820;49.374;8.452;2022-09-09T23:57:42;17.10;99.99
